Time;durP1;ratioP1;P1;durP2;ratioP2;P2;SDS_P1;SDS_P2;PMS_P1;PMS_P2;Temp;Humidity;BMP_temperature;BMP_pressure;BME280_temperature;BME280_humidity;BME280_pressure;Samples;Min_cycle;Max_cycle;Signal;HPM_P1;HPM_P2
2022/04/04 00:00:09;;;;;;;2.17;1.15;;;19.70;45.20;;;;;;4878977;29;20192;-62
2022/04/04 00:02:35;;;;;;;2.33;0.82;;;19.70;45.10;;;;;;4878072;29;20052;-62
2022/04/04 00:05:01;;;;;;;3.58;1.08;;;19.70;45.10;;;;;;4878952;29;20041;-62
2022/04/04 00:07:27;;;;;;;2.13;1.05;;;19.70;45.10;;;;;;4878658;29;20053;-62
2022/04/04 00:09:52;;;;;;;3.42;1.10;;;19.70;45.10;;;;;;4878071;29;20072;-62
2022/04/04 00:12:18;;;;;;;5.03;1.10;;;19.70;45.10;;;;;;4878435;29;20045;-62
2022/04/04 00:14:43;;;;;;;2.35;0.88;;;19.70;45.10;;;;;;4878451;29;20057;-62
2022/04/04 00:17:10;;;;;;;2.78;1.10;;;19.70;45.10;;;;;;4878190;29;20056;-62
2022/04/04 00:19:35;;;;;;;2.25;0.90;;;19.70;45.10;;;;;;4878790;29;20132;-62
2022/04/04 00:22:01;;;;;;;2.55;1.10;;;19.60;45.00;;;;;;4878072;29;20131;-62
2022/04/04 00:24:27;;;;;;;1.50;0.80;;;19.60;45.00;;;;;;4881144;29;20131;-62
2022/04/04 00:26:52;;;;;;;2.70;0.93;;;19.60;45.00;;;;;;4882158;29;20124;-62
2022/04/04 00:29:18;;;;;;;2.20;0.80;;;19.60;45.00;;;;;;4883316;29;20061;-62
2022/04/04 00:31:44;;;;;;;1.25;0.75;;;19.60;45.00;;;;;;4899911;29;20102;-62
2022/04/04 00:34:10;;;;;;;2.20;0.82;;;19.60;45.00;;;;;;4901031;29;20074;-62
2022/04/04 00:36:36;;;;;;;3.22;0.90;;;19.60;45.00;;;;;;4900503;29;20041;-62
2022/04/04 00:39:01;;;;;;;2.67;1.08;;;19.60;45.00;;;;;;4901028;29;20044;-62
2022/04/04 00:41:27;;;;;;;2.53;0.82;;;19.60;44.90;;;;;;4900647;29;20088;-62
2022/04/04 00:43:53;;;;;;;3.10;0.90;;;19.60;44.90;;;;;;4900244;29;20072;-62
2022/04/04 00:46:19;;;;;;;1.20;0.75;;;19.60;45.70;;;;;;4900572;29;20091;-62
2022/04/04 00:48:44;;;;;;;2.13;0.98;;;19.60;45.00;;;;;;4901039;29;20053;-63
2022/04/04 00:51:10;;;;;;;2.33;0.75;;;19.60;44.90;;;;;;4900201;29;20040;-62
2022/04/04 00:53:35;;;;;;;1.90;0.77;;;19.60;45.00;;;;;;4900608;29;20048;-62
2022/04/04 00:56:01;;;;;;;2.65;0.77;;;19.60;44.90;;;;;;4899585;29;20049;-62
2022/04/04 00:58:27;;;;;;;2.03;0.80;;;19.60;44.90;;;;;;4882700;29;20067;-62
2022/04/04 01:00:53;;;;;;;1.95;0.73;;;19.60;44.90;;;;;;4899527;29;20052;-62
2022/04/04 01:03:18;;;;;;;2.58;0.82;;;19.60;44.90;;;;;;4899312;29;20049;-62
2022/04/04 01:05:44;;;;;;;1.80;0.70;;;19.60;44.90;;;;;;4899696;29;20047;-62
2022/04/04 01:08:13;;;;;;;1.52;0.82;;;19.60;44.80;;;;;;4900422;29;20049;-63
2022/04/04 01:10:43;;;;;;;2.10;0.80;;;19.60;44.80;;;;;;4900306;29;20040;-62
2022/04/04 01:13:09;;;;;;;2.20;0.70;;;19.60;44.90;;;;;;4899992;29;20053;-62
2022/04/04 01:15:35;;;;;;;1.75;0.80;;;19.60;44.80;;;;;;4899812;29;20486;-63
2022/04/04 01:18:04;;;;;;;0.90;0.50;;;19.60;45.50;;;;;;4900435;29;20074;-62
2022/04/04 01:20:30;;;;;;;2.50;0.80;;;19.60;44.80;;;;;;4899149;29;20564;-62
2022/04/04 01:22:55;;;;;;;0.88;0.70;;;19.60;44.80;;;;;;4900308;29;20068;-62
2022/04/04 01:25:28;;;;;;;1.75;0.65;;;19.60;44.80;;;;;;4899137;29;20490;-62
2022/04/04 01:27:55;;;;;;;1.35;0.60;;;19.60;44.80;;;;;;4900153;29;20044;-62
2022/04/04 01:30:22;;;;;;;1.23;0.60;;;19.60;44.80;;;;;;4899804;29;20053;-63
2022/04/04 01:32:49;;;;;;;1.77;0.70;;;19.60;44.70;;;;;;4899298;29;20080;-62
2022/04/04 01:35:24;;;;;;;0.90;0.57;;;19.60;44.70;;;;;;4898925;29;20453;-62
2022/04/04 01:37:49;;;;;;;1.23;0.55;;;19.70;44.80;;;;;;4899894;29;20064;-62
2022/04/04 01:40:15;;;;;;;1.77;0.80;;;19.70;44.80;;;;;;4898933;29;20405;-62
2022/04/04 01:42:41;;;;;;;3.03;0.63;;;19.70;44.80;;;;;;4899694;29;20108;-62
2022/04/04 01:45:07;;;;;;;1.40;0.60;;;19.70;44.80;;;;;;4899856;29;20049;-62
2022/04/04 01:47:33;;;;;;;1.50;0.80;;;19.70;44.70;;;;;;4898779;29;20138;-62
2022/04/04 01:49:59;;;;;;;2.25;0.60;;;19.70;44.70;;;;;;4899859;29;20123;-62
2022/04/04 01:52:25;;;;;;;1.70;0.77;;;19.70;44.60;;;;;;4899631;29;20091;-62
2022/04/04 01:54:50;;;;;;;1.50;0.60;;;19.70;44.60;;;;;;4899025;29;20065;-62
2022/04/04 01:57:16;;;;;;;2.40;0.95;;;19.70;44.60;;;;;;4899187;29;20071;-62
2022/04/04 01:59:41;;;;;;;2.45;0.70;;;19.70;44.60;;;;;;4899581;29;20485;-62
2022/04/04 02:02:07;;;;;;;1.65;0.70;;;19.70;44.50;;;;;;4897889;29;20045;-62
2022/04/04 02:04:32;;;;;;;1.50;0.68;;;19.70;44.50;;;;;;4898205;29;20048;-62
2022/04/04 02:06:58;;;;;;;1.20;0.60;;;19.70;44.50;;;;;;4899230;29;20461;-62
2022/04/04 02:09:24;;;;;;;1.20;0.60;;;19.80;44.60;;;;;;4898556;29;20131;-62
2022/04/04 02:11:49;;;;;;;1.63;0.70;;;19.80;44.60;;;;;;4899569;29;20123;-62
2022/04/04 02:14:15;;;;;;;1.70;0.60;;;19.80;44.60;;;;;;4898755;29;20044;-62
2022/04/04 02:16:42;;;;;;;0.90;0.50;;;19.80;44.50;;;;;;4898306;29;20053;-62
2022/04/04 02:19:08;;;;;;;1.88;0.65;;;19.80;44.60;;;;;;4899302;29;20044;-62
2022/04/04 02:21:34;;;;;;;1.33;0.60;;;19.80;44.50;;;;;;4898411;29;20100;-62
2022/04/04 02:23:59;;;;;;;1.77;0.70;;;19.80;44.50;;;;;;4899033;29;20060;-62
2022/04/04 02:26:25;;;;;;;1.92;0.68;;;19.80;44.40;;;;;;4898523;29;20044;-63
2022/04/04 02:28:51;;;;;;;1.27;0.55;;;19.80;44.40;;;;;;4897897;29;20504;-63
2022/04/04 02:31:16;;;;;;;1.52;0.70;;;19.80;44.50;;;;;;4897554;29;20111;-62
2022/04/04 02:33:42;;;;;;;0.73;0.50;;;19.80;44.40;;;;;;4898636;29;20048;-62
2022/04/04 02:36:08;;;;;;;1.25;0.50;;;19.80;44.50;;;;;;4898352;29;20045;-62
2022/04/04 02:38:34;;;;;;;1.73;0.60;;;19.90;44.50;;;;;;4898689;29;20052;-62
2022/04/04 02:41:00;;;;;;;0.77;0.60;;;19.80;44.40;;;;;;4898862;29;20478;-62
2022/04/04 02:43:25;;;;;;;1.90;0.70;;;19.90;44.50;;;;;;4897740;29;20059;-62
2022/04/04 02:45:51;;;;;;;0.68;0.40;;;19.90;44.50;;;;;;4898657;29;20528;-62
2022/04/04 02:48:16;;;;;;;2.03;0.60;;;19.90;44.50;;;;;;4897374;29;20053;-62
2022/04/04 02:50:43;;;;;;;2.15;0.50;;;19.90;44.50;;;;;;4897874;29;20049;-62
2022/04/04 02:53:09;;;;;;;3.20;0.57;;;19.90;44.40;;;;;;4898661;29;20048;-62
2022/04/04 02:58:18;;;;;;;0.90;0.50;;;19.90;44.40;;;;;;4897839;29;20048;-62
2022/04/04 03:00:45;;;;;;;0.95;0.55;;;19.90;44.40;;;;;;4898247;29;20052;-62
2022/04/04 03:03:10;;;;;;;1.60;0.63;;;19.90;44.40;;;;;;4897906;29;20048;-62
2022/04/04 03:05:36;;;;;;;0.98;0.60;;;19.90;44.40;;;;;;4897804;29;20128;-62
2022/04/04 03:08:09;;;;;;;1.17;0.50;;;19.90;44.40;;;;;;5090153;27;20727;-61
2022/04/04 03:10:35;;;;;;;1.50;0.68;;;19.90;44.40;;;;;;5090062;28;20043;-61
2022/04/04 03:13:02;;;;;;;1.23;0.60;;;19.90;44.40;;;;;;5089424;28;20052;-61
2022/04/04 03:15:28;;;;;;;1.77;0.52;;;20.00;44.50;;;;;;5089901;28;20056;-62
2022/04/04 03:17:54;;;;;;;1.73;0.60;;;20.00;44.50;;;;;;5089218;28;20040;-61
2022/04/04 03:20:20;;;;;;;1.80;0.60;;;20.00;44.40;;;;;;5089665;28;20460;-61
2022/04/04 03:22:48;;;;;;;1.20;0.50;;;20.00;44.40;;;;;;5090051;28;20051;-62
2022/04/04 03:25:14;;;;;;;1.05;0.50;;;20.00;44.40;;;;;;5088620;28;20484;-61
2022/04/04 03:27:40;;;;;;;1.70;0.60;;;20.00;44.40;;;;;;5089647;28;20044;-61
2022/04/04 03:30:07;;;;;;;1.27;0.50;;;20.00;44.40;;;;;;5089884;28;20399;-62
2022/04/04 03:32:33;;;;;;;2.25;0.50;;;20.00;44.40;;;;;;5088649;28;20472;-62
2022/04/04 03:34:59;;;;;;;1.75;0.50;;;20.00;44.30;;;;;;5089933;28;20045;-61
2022/04/04 03:37:25;;;;;;;1.15;0.55;;;20.00;44.40;;;;;;5089301;28;20052;-62
2022/04/04 03:39:51;;;;;;;1.30;0.40;;;20.00;44.30;;;;;;5089033;28;20048;-62
2022/04/04 03:42:17;;;;;;;0.88;0.40;;;20.00;44.30;;;;;;5088988;28;20411;-62
2022/04/04 03:44:42;;;;;;;1.40;0.60;;;20.10;44.40;;;;;;5088984;28;20040;-62
2022/04/04 03:47:10;;;;;;;1.40;0.45;;;20.00;44.30;;;;;;5088478;28;20044;-62
2022/04/04 03:49:36;;;;;;;1.13;0.55;;;20.10;44.40;;;;;;5089514;28;20115;-62
2022/04/04 03:52:02;;;;;;;2.30;0.50;;;20.10;44.40;;;;;;5089556;28;20119;-62
2022/04/04 03:54:28;;;;;;;1.30;0.45;;;20.10;44.40;;;;;;5088289;28;20040;-62
2022/04/04 03:56:53;;;;;;;1.38;0.50;;;20.10;44.40;;;;;;5089470;28;20098;-62
2022/04/04 03:59:19;;;;;;;1.30;0.50;;;20.10;44.40;;;;;;5088545;28;20398;-62
2022/04/04 04:01:44;;;;;;;1.23;0.50;;;20.10;44.40;;;;;;5088498;28;20483;-61
2022/04/04 04:04:10;;;;;;;0.80;0.50;;;20.10;44.40;;;;;;5088973;28;20040;-62
2022/04/04 04:06:35;;;;;;;1.92;0.68;;;20.10;44.30;;;;;;5088164;28;20143;-61
2022/04/04 04:09:01;;;;;;;1.27;0.52;;;20.10;44.30;;;;;;5088175;28;20044;-61
2022/04/04 04:11:28;;;;;;;1.52;0.47;;;20.10;44.30;;;;;;5088817;28;20442;-62
2022/04/04 04:13:54;;;;;;;1.47;0.60;;;20.10;44.30;;;;;;5088668;28;20506;-61
2022/04/04 04:16:20;;;;;;;1.92;0.60;;;20.10;44.30;;;;;;5087574;28;20310;-61
2022/04/04 04:18:45;;;;;;;0.82;0.40;;;20.10;44.30;;;;;;5079550;28;20055;-61
2022/04/04 04:21:11;;;;;;;0.95;0.40;;;20.10;44.30;;;;;;5074048;28;20496;-61
2022/04/04 04:23:37;;;;;;;0.98;0.60;;;20.10;44.20;;;;;;5075291;28;20045;-61
2022/04/04 04:26:04;;;;;;;3.13;0.70;;;20.10;44.20;;;;;;5074778;28;20544;-62
2022/04/04 04:28:30;;;;;;;0.85;0.50;;;20.10;44.30;;;;;;5073847;28;20832;-61
2022/04/04 04:30:56;;;;;;;1.05;0.40;;;20.10;44.20;;;;;;5075396;28;20037;-62
2022/04/04 04:33:22;;;;;;;2.40;0.47;;;20.10;44.20;;;;;;5074966;28;20056;-62
2022/04/04 04:35:48;;;;;;;0.57;0.40;;;20.10;44.20;;;;;;5074377;28;20040;-62
2022/04/04 04:38:13;;;;;;;1.02;0.40;;;20.20;44.30;;;;;;5074955;28;20040;-62
2022/04/04 04:40:39;;;;;;;1.13;0.60;;;20.20;44.20;;;;;;5075056;28;20044;-62
2022/04/04 04:43:04;;;;;;;1.17;0.43;;;20.20;44.20;;;;;;5074075;28;20049;-62
2022/04/04 04:45:30;;;;;;;2.58;0.70;;;20.20;44.20;;;;;;5074652;28;20053;-62
2022/04/04 04:47:56;;;;;;;1.55;0.60;;;20.20;44.20;;;;;;5074782;28;20458;-62
2022/04/04 04:50:22;;;;;;;1.27;0.50;;;20.20;44.20;;;;;;5073674;28;20083;-62
2022/04/04 04:52:48;;;;;;;1.33;0.57;;;20.20;44.10;;;;;;5074833;28;20045;-62
2022/04/04 04:55:14;;;;;;;1.40;0.43;;;20.20;44.10;;;;;;5074640;28;20037;-62
2022/04/04 04:57:40;;;;;;;1.15;0.52;;;20.20;44.10;;;;;;5073758;28;20036;-62
2022/04/04 05:00:07;;;;;;;1.10;0.50;;;20.20;44.00;;;;;;5074563;28;20052;-62
2022/04/04 05:02:34;;;;;;;1.88;0.57;;;20.20;44.10;;;;;;5089936;28;20518;-62
2022/04/04 05:05:00;;;;;;;1.85;0.50;;;20.20;44.10;;;;;;5073885;28;20040;-62
2022/04/04 05:07:26;;;;;;;1.45;0.70;;;20.20;44.10;;;;;;5073925;28;20068;-62
2022/04/04 05:09:51;;;;;;;1.08;0.47;;;20.20;44.10;;;;;;5074440;28;20040;-62
2022/04/04 05:12:17;;;;;;;1.70;0.57;;;20.20;44.10;;;;;;5073386;28;20044;-62
2022/04/04 05:14:43;;;;;;;1.58;0.60;;;20.20;44.10;;;;;;5074326;28;20040;-62
2022/04/04 05:17:08;;;;;;;1.58;0.70;;;20.20;44.00;;;;;;5074400;28;20127;-62
2022/04/04 05:19:34;;;;;;;1.70;0.45;;;20.20;44.10;;;;;;5073236;28;20051;-62
2022/04/04 05:21:59;;;;;;;1.67;0.50;;;20.20;44.00;;;;;;5074298;28;20044;-62
2022/04/04 05:24:25;;;;;;;1.52;0.60;;;20.20;44.00;;;;;;5073649;28;20040;-62
2022/04/04 05:26:50;;;;;;;1.67;0.50;;;20.20;44.00;;;;;;5073514;28;20072;-62
2022/04/04 05:29:17;;;;;;;1.63;0.60;;;20.20;44.00;;;;;;5073252;28;20076;-62
2022/04/04 05:31:45;;;;;;;0.75;0.50;;;20.20;44.00;;;;;;5072676;28;20467;-62
2022/04/04 05:34:10;;;;;;;2.53;0.50;;;20.20;44.00;;;;;;5073803;28;20098;-61
2022/04/04 05:36:36;;;;;;;2.40;0.60;;;20.20;44.00;;;;;;5074064;28;20037;-61
2022/04/04 05:39:02;;;;;;;0.98;0.40;;;20.20;43.90;;;;;;5073184;28;20090;-61
2022/04/04 05:41:28;;;;;;;1.23;0.52;;;20.30;44.00;;;;;;5073092;28;20097;-61
2022/04/04 05:43:53;;;;;;;1.17;0.40;;;20.30;44.00;;;;;;5073566;28;20044;-62
2022/04/04 05:46:19;;;;;;;0.90;0.40;;;20.30;44.00;;;;;;5072687;28;20468;-62
2022/04/04 05:48:45;;;;;;;0.98;0.40;;;20.30;44.00;;;;;;5073687;28;20075;-62
2022/04/04 05:51:10;;;;;;;1.90;0.50;;;20.30;43.90;;;;;;5073398;28;20040;-62
2022/04/04 05:53:36;;;;;;;1.85;0.50;;;20.30;43.90;;;;;;5072942;28;20037;-62
2022/04/04 05:56:02;;;;;;;1.52;0.50;;;20.30;43.90;;;;;;5073293;28;20487;-61
2022/04/04 05:58:27;;;;;;;0.90;0.40;;;20.30;43.90;;;;;;5072995;28;20083;-62
2022/04/04 06:00:53;;;;;;;0.80;0.47;;;20.30;43.90;;;;;;5072634;28;20052;-61
2022/04/04 06:03:19;;;;;;;1.13;0.50;;;20.30;43.90;;;;;;5073064;28;20136;-62
2022/04/04 06:05:47;;;;;;;1.52;0.40;;;20.30;43.90;;;;;;5073188;28;20491;-62
2022/04/04 06:08:13;;;;;;;1.77;0.50;;;20.30;43.90;;;;;;5072276;28;20119;-62
2022/04/04 06:10:38;;;;;;;1.85;0.50;;;20.30;43.90;;;;;;5073299;28;20602;-61
2022/04/04 06:13:04;;;;;;;6.30;0.77;;;20.30;43.80;;;;;;5073183;28;20652;-61
2022/04/04 06:15:29;;;;;;;1.20;0.50;;;20.30;43.80;;;;;;5072505;28;20073;-61
2022/04/04 06:17:55;;;;;;;2.35;0.60;;;20.30;43.90;;;;;;5073329;28;20089;-61
2022/04/04 06:20:20;;;;;;;2.33;0.60;;;20.30;43.80;;;;;;5073011;28;20063;-60
2022/04/04 06:22:46;;;;;;;4.45;0.70;;;20.30;43.80;;;;;;5071789;28;20080;-61
2022/04/04 06:25:15;;;;;;;2.78;0.70;;;20.30;43.80;;;;;;5071777;28;20040;-61
2022/04/04 06:27:40;;;;;;;3.70;0.50;;;20.30;43.80;;;;;;5072947;28;20045;-61
2022/04/04 06:30:07;;;;;;;2.83;0.70;;;20.40;43.90;;;;;;5072272;28;20045;-61
2022/04/04 06:32:33;;;;;;;3.50;0.68;;;20.40;43.90;;;;;;5072741;28;20052;-61
2022/04/04 06:34:59;;;;;;;2.42;0.65;;;20.40;43.90;;;;;;5072020;28;20123;-61
2022/04/04 06:37:24;;;;;;;5.68;0.95;;;20.40;44.00;;;;;;5072555;28;20051;-61
2022/04/04 06:39:50;;;;;;;1.75;0.60;;;20.40;44.10;;;;;;5073062;28;20128;-61
2022/04/04 06:42:15;;;;;;;5.22;0.60;;;20.40;44.10;;;;;;5071684;28;20504;-59
2022/04/04 06:44:42;;;;;;;2.47;0.60;;;20.40;44.20;;;;;;5072365;28;20040;-61
2022/04/04 06:47:08;;;;;;;3.40;0.57;;;20.40;44.40;;;;;;5072636;28;20483;-61
2022/04/04 06:49:34;;;;;;;1.20;0.50;;;20.40;44.60;;;;;;5071762;28;20044;-62
2022/04/04 06:51:59;;;;;;;1.80;0.60;;;20.40;44.80;;;;;;5072895;28;20052;-60
2022/04/04 06:54:27;;;;;;;1.98;0.60;;;20.40;45.00;;;;;;5072028;28;20105;-61
2022/04/04 06:56:53;;;;;;;2.38;0.70;;;20.40;45.00;;;;;;5072160;28;20051;-62
2022/04/04 06:59:19;;;;;;;3.15;0.82;;;20.50;45.00;;;;;;5057536;28;20037;-61
2022/04/04 07:01:45;;;;;;;4.07;0.70;;;20.40;45.00;;;;;;5052617;28;20044;-62
2022/04/04 07:04:11;;;;;;;1.38;0.60;;;20.50;45.10;;;;;;5051484;28;20079;-61
2022/04/04 07:06:37;;;;;;;1.48;0.60;;;20.50;45.20;;;;;;5052362;28;20052;-61
2022/04/04 07:09:02;;;;;;;1.30;0.55;;;20.50;45.20;;;;;;5052511;28;20053;-61
2022/04/04 07:11:29;;;;;;;2.85;0.60;;;20.50;45.10;;;;;;5051559;28;20048;-60
2022/04/04 07:13:55;;;;;;;2.17;0.68;;;20.50;45.10;;;;;;5051447;28;20067;-60
2022/04/04 07:16:21;;;;;;;1.25;0.50;;;20.50;45.20;;;;;;5056584;28;20472;-60
2022/04/04 07:18:48;;;;;;;2.47;0.60;;;20.50;45.30;;;;;;5071965;28;20044;-60
2022/04/04 07:21:13;;;;;;;2.50;0.80;;;20.50;45.40;;;;;;5072335;28;20052;-61
2022/04/04 07:23:39;;;;;;;1.33;0.70;;;20.50;45.50;;;;;;5072689;28;20162;-61
2022/04/04 07:26:04;;;;;;;3.80;0.70;;;20.50;45.40;;;;;;5071364;28;20502;-61
2022/04/04 07:28:30;;;;;;;4.38;0.75;;;20.50;45.30;;;;;;5071869;28;20139;-60
2022/04/04 07:30:55;;;;;;;3.53;0.85;;;20.50;45.30;;;;;;5071902;28;20048;-61
2022/04/04 07:33:21;;;;;;;1.83;0.80;;;20.50;45.30;;;;;;5070716;28;20071;-61
2022/04/04 07:35:46;;;;;;;2.72;0.65;;;20.50;45.30;;;;;;5071773;28;20037;-60
2022/04/04 07:38:12;;;;;;;2.08;0.82;;;20.60;45.30;;;;;;5070966;28;20036;-60
2022/04/04 07:40:38;;;;;;;2.83;0.90;;;20.50;45.20;;;;;;5072328;28;20090;-61
2022/04/04 07:43:03;;;;;;;1.90;1.00;;;20.50;45.10;;;;;;5071755;28;20046;-60
2022/04/04 07:45:30;;;;;;;3.88;0.90;;;20.50;45.00;;;;;;5070833;28;20090;-60
2022/04/04 07:47:56;;;;;;;2.80;0.70;;;20.60;45.00;;;;;;5072247;28;20053;-60
2022/04/04 07:50:22;;;;;;;2.22;0.90;;;20.60;45.00;;;;;;5072016;28;20553;-60
2022/04/04 07:52:48;;;;;;;1.40;0.60;;;20.60;44.90;;;;;;5071677;28;20050;-60
2022/04/04 07:55:13;;;;;;;1.98;0.70;;;20.60;44.90;;;;;;5075475;28;20043;-60
2022/04/04 07:57:39;;;;;;;2.55;0.85;;;20.60;44.90;;;;;;5075937;28;20432;-61
2022/04/04 08:00:05;;;;;;;7.97;0.90;;;20.60;44.90;;;;;;5074783;28;20396;-60
2022/04/04 08:02:31;;;;;;;1.38;0.60;;;20.60;44.90;;;;;;5074845;28;20110;-60
2022/04/04 08:04:56;;;;;;;4.95;0.80;;;20.60;44.80;;;;;;5075447;28;20463;-60
2022/04/04 08:07:22;;;;;;;1.40;0.60;;;20.60;44.80;;;;;;5074194;28;20500;-62
2022/04/04 08:09:48;;;;;;;3.72;1.00;;;20.60;45.50;;;;;;5075774;28;20048;-60
2022/04/04 08:12:14;;;;;;;4.40;0.60;;;20.60;44.70;;;;;;5074096;28;20041;-60
2022/04/04 08:14:39;;;;;;;2.42;0.77;;;20.60;44.80;;;;;;5074623;28;20491;-60
2022/04/04 08:17:05;;;;;;;3.70;1.23;;;20.60;44.80;;;;;;5075360;28;20044;-60
2022/04/04 08:19:30;;;;;;;1.83;0.77;;;20.60;44.80;;;;;;5075258;28;20051;-60
2022/04/04 08:21:56;;;;;;;6.45;1.10;;;20.60;44.80;;;;;;5074436;28;20048;-60
2022/04/04 08:24:22;;;;;;;5.82;1.42;;;20.60;44.70;;;;;;5075126;28;20102;-60
2022/04/04 08:26:48;;;;;;;2.38;0.90;;;20.60;44.60;;;;;;5075478;28;20468;-60
2022/04/04 08:29:14;;;;;;;6.85;1.42;;;20.60;44.60;;;;;;5074492;28;20036;-60
2022/04/04 08:31:39;;;;;;;6.53;1.67;;;20.60;44.60;;;;;;5074632;28;20080;-59
2022/04/04 08:34:05;;;;;;;6.20;1.98;;;20.60;44.60;;;;;;5074662;28;20045;-60
2022/04/04 08:36:31;;;;;;;7.90;1.50;;;20.60;44.60;;;;;;5074070;28;20041;-60
2022/04/04 08:38:57;;;;;;;5.53;1.60;;;20.60;44.70;;;;;;5075138;28;20044;-60
2022/04/04 08:41:22;;;;;;;5.68;1.80;;;20.60;44.80;;;;;;5073881;28;20090;-61
2022/04/04 08:43:49;;;;;;;4.80;1.60;;;20.60;44.70;;;;;;5073436;28;20048;-60
2022/04/04 08:46:15;;;;;;;6.00;1.58;;;20.60;44.60;;;;;;5074749;28;20041;-60
2022/04/04 08:48:41;;;;;;;5.45;2.10;;;20.60;44.60;;;;;;5074276;28;20836;-60
2022/04/04 08:51:07;;;;;;;5.82;1.83;;;20.60;44.60;;;;;;5074843;28;20044;-61
2022/04/04 08:53:34;;;;;;;4.45;1.60;;;20.60;44.50;;;;;;5074688;28;20048;-60
2022/04/04 08:56:00;;;;;;;5.32;1.95;;;20.60;44.60;;;;;;5074283;28;20051;-60
2022/04/04 08:58:26;;;;;;;5.07;1.80;;;20.60;44.60;;;;;;5056660;28;20036;-60
2022/04/04 09:00:52;;;;;;;3.40;1.38;;;20.60;44.80;;;;;;5074508;28;20555;-60
2022/04/04 09:03:22;;;;;;;3.20;1.30;;;20.60;44.80;;;;;;5073191;28;20037;-60
2022/04/04 09:05:54;;;;;;;4.22;1.60;;;20.70;45.10;;;;;;5072570;28;20106;-61
2022/04/04 09:08:20;;;;;;;5.20;1.85;;;20.70;45.20;;;;;;5074145;28;20056;-61
2022/04/04 09:10:46;;;;;;;6.30;1.73;;;20.70;45.20;;;;;;5073689;28;20115;-61
2022/04/04 09:13:16;;;;;;;5.30;1.75;;;20.70;45.30;;;;;;5074030;28;20044;-61
2022/04/04 09:15:54;;;;;;;3.97;1.52;;;20.70;45.40;;;;;;5074579;28;20136;-61
2022/04/04 09:18:36;;;;;;;3.30;1.10;;;20.70;45.50;;;;;;5073202;28;20556;-61
2022/04/04 09:21:05;;;;;;;5.70;1.77;;;20.70;45.60;;;;;;5073538;28;20131;-61
2022/04/04 09:23:34;;;;;;;11.35;2.00;;;20.70;45.60;;;;;;5074204;28;20102;-62
2022/04/04 09:26:00;;;;;;;5.97;1.63;;;20.70;45.60;;;;;;5074115;28;20055;-61
2022/04/04 09:28:26;;;;;;;3.88;1.60;;;20.70;45.60;;;;;;5073822;28;20090;-62
2022/04/04 09:31:08;;;;;;;4.20;1.40;;;20.70;45.60;;;;;;5074390;28;20044;-61
2022/04/04 09:33:35;;;;;;;2.95;1.17;;;20.70;45.60;;;;;;5074076;28;20105;-62
2022/04/04 09:36:01;;;;;;;3.70;1.47;;;20.70;45.60;;;;;;5074125;28;20123;-61
2022/04/04 09:38:26;;;;;;;2.97;1.10;;;20.70;45.60;;;;;;5072104;28;20123;-61
2022/04/04 09:40:52;;;;;;;3.50;1.27;;;20.70;45.60;;;;;;5070957;28;20515;-61
2022/04/04 09:43:17;;;;;;;4.03;1.48;;;20.70;45.60;;;;;;5052867;28;20037;-61
2022/04/04 09:45:44;;;;;;;4.43;1.30;;;20.70;45.60;;;;;;5067867;28;20476;-61
2022/04/04 09:48:11;;;;;;;4.43;1.20;;;20.70;46.20;;;;;;5052825;28;20041;-61
2022/04/04 09:50:43;;;;;;;2.85;1.55;;;20.80;45.60;;;;;;5053191;28;20048;-61
2022/04/04 09:53:11;;;;;;;3.15;1.30;;;20.80;45.70;;;;;;5052825;28;20037;-62
2022/04/04 09:55:41;;;;;;;3.30;1.23;;;20.80;45.70;;;;;;5058709;28;20047;-60
2022/04/04 09:58:08;;;;;;;4.88;1.40;;;20.80;45.60;;;;;;5073383;28;20469;-61
2022/04/04 10:00:38;;;;;;;5.15;1.10;;;20.80;45.60;;;;;;5072595;28;20044;-61
2022/04/04 10:03:05;;;;;;;2.22;1.05;;;20.80;45.60;;;;;;5073297;28;20396;-62
2022/04/04 10:05:30;;;;;;;4.22;1.33;;;20.80;45.60;;;;;;5072730;28;20909;-62
2022/04/04 10:07:56;;;;;;;4.15;1.10;;;20.80;45.50;;;;;;5072168;28;20534;-62
2022/04/04 10:10:26;;;;;;;2.60;1.08;;;20.80;45.60;;;;;;5073231;28;20048;-62
2022/04/04 10:12:52;;;;;;;2.47;1.20;;;20.80;45.60;;;;;;5072774;28;20044;-62
2022/04/04 10:15:19;;;;;;;2.67;0.95;;;20.80;45.60;;;;;;5072313;28;20488;-62
2022/04/04 10:17:44;;;;;;;3.72;1.10;;;20.80;45.60;;;;;;5072991;28;20075;-62
2022/04/04 10:20:11;;;;;;;3.75;1.00;;;20.80;45.60;;;;;;5071344;28;20092;-62
2022/04/04 10:22:36;;;;;;;2.08;1.20;;;20.80;45.60;;;;;;5073093;28;20067;-62
2022/04/04 10:25:03;;;;;;;3.45;0.95;;;20.80;45.50;;;;;;5054617;28;20404;-61
2022/04/04 10:27:29;;;;;;;3.92;1.33;;;20.80;45.50;;;;;;5071855;28;20040;-64
2022/04/04 10:30:05;;;;;;;4.18;1.27;;;20.80;45.50;;;;;;5073862;28;20044;-64
2022/04/04 10:32:31;;;;;;;2.17;0.63;;;20.80;45.40;;;;;;5071193;28;20052;-64
2022/04/04 10:34:57;;;;;;;2.25;0.90;;;20.80;45.40;;;;;;5070827;28;20399;-64
2022/04/04 10:37:26;;;;;;;1.88;0.90;;;20.80;45.40;;;;;;5071279;28;20491;-63
2022/04/04 10:39:52;;;;;;;3.05;0.93;;;20.80;45.40;;;;;;5073141;28;20055;-64
2022/04/04 10:42:26;;;;;;;1.55;0.70;;;20.80;45.40;;;;;;5071902;28;20044;-64
2022/04/04 10:45:10;;;;;;;2.40;0.80;;;20.90;45.40;;;;;;5072919;28;20079;-64
2022/04/04 10:47:40;;;;;;;3.88;0.90;;;20.80;45.30;;;;;;5072566;28;20040;-64
2022/04/04 10:50:22;;;;;;;2.10;1.00;;;20.80;45.40;;;;;;5072020;28;20044;-65
2022/04/04 10:52:48;;;;;;;2.42;1.10;;;20.80;45.30;;;;;;5072999;28;20040;-63
2022/04/04 10:55:38;;;;;;;2.80;0.70;;;20.80;45.40;;;;;;5071874;28;20040;-65
2022/04/04 10:58:13;;;;;;;2.38;1.00;;;20.80;45.40;;;;;;5072645;28;20079;-62
2022/04/04 11:00:56;;;;;;;6.28;0.73;;;20.80;45.40;;;;;;5072972;28;20040;-62
2022/04/04 11:03:38;;;;;;;2.70;0.90;;;20.80;45.50;;;;;;5071835;28;20050;-63
2022/04/04 11:12:00;;;;;;;3.92;0.80;;;20.90;45.70;;;;;;5063896;28;20044;-68
2022/04/04 11:14:28;;;;;;;4.82;0.98;;;20.90;45.70;;;;;;5070190;28;20044;-66
2022/04/04 11:17:06;;;;;;;3.20;1.00;;;20.90;46.00;;;;;;5051429;28;20037;-65
2022/04/04 11:20:21;;;;;;;2.40;0.70;;;20.90;46.00;;;;;;5052021;28;20493;-64
2022/04/04 11:23:10;;;;;;;1.75;0.60;;;20.90;46.20;;;;;;5048290;28;20052;-64
2022/04/04 11:28:56;;;;;;;4.57;0.70;;;20.90;46.20;;;;;;5046705;28;20040;-63
2022/04/04 11:32:33;;;;;;;;;;;;;;;;;;;;;
2022/04/04 11:34:31;;;;;;;2.25;0.88;;;21.00;46.40;;;;;;5071754;28;20399;-64
2022/04/04 11:36:57;;;;;;;2.42;0.60;;;20.90;46.40;;;;;;5075913;28;20045;-64
2022/04/04 11:39:23;;;;;;;2.60;0.52;;;21.00;46.60;;;;;;5057188;28;20430;-63
2022/04/04 11:42:10;;;;;;;2.85;0.65;;;21.00;46.70;;;;;;5074263;28;20044;-62
2022/04/04 11:44:37;;;;;;;3.53;0.75;;;21.00;46.70;;;;;;5063816;28;20496;-63
2022/04/04 11:47:07;;;;;;;1.95;0.70;;;21.00;47.40;;;;;;5073866;28;20048;-63
2022/04/04 11:49:43;;;;;;;2.30;0.70;;;21.00;46.80;;;;;;5075039;28;20488;-62
2022/04/04 11:52:16;;;;;;;1.10;0.57;;;21.00;46.80;;;;;;5072771;28;20147;-63
2022/04/04 11:55:07;;;;;;;1.67;0.60;;;21.00;46.80;;;;;;5074640;28;20124;-65
2022/04/04 11:57:46;;;;;;;;;;;;;;;;;;;;;
2022/04/04 12:00:21;;;;;;;2.67;0.70;;;21.00;46.80;;;;;;5072539;28;20135;-64
2022/04/04 12:03:11;;;;;;;2.08;0.63;;;21.00;46.80;;;;;;5075674;28;20037;-63
2022/04/04 12:05:40;;;;;;;2.70;0.60;;;21.00;46.80;;;;;;5071500;28;20052;-63
2022/04/04 12:08:16;;;;;;;1.50;0.65;;;21.00;46.80;;;;;;5075208;28;20052;-63
2022/04/04 12:10:42;;;;;;;3.72;0.60;;;21.10;46.80;;;;;;5075880;28;20086;-64
2022/04/04 12:13:18;;;;;;;1.95;0.60;;;21.00;46.70;;;;;;5074152;28;20396;-62
2022/04/04 12:15:46;;;;;;;1.40;0.52;;;21.10;46.80;;;;;;5074230;28;20458;-64
2022/04/04 12:18:12;;;;;;;;;;;21.10;46.80;;;;;;5075668;28;20052;-64
2022/04/04 12:20:45;;;;;;;3.38;0.70;;;21.10;46.80;;;;;;5073612;28;20375;-63
2022/04/04 12:26:01;;;;;;;1.58;0.40;;;21.10;46.70;;;;;;5075648;28;20053;-64
2022/04/04 12:28:29;;;;;;;1.80;0.60;;;21.10;46.70;;;;;;5074197;28;20476;-64
2022/04/04 12:30:55;;;;;;;1.48;0.50;;;21.10;46.70;;;;;;5075333;28;20041;-64
2022/04/04 12:33:28;;;;;;;2.22;0.63;;;21.10;46.70;;;;;;5075068;28;20052;-63
2022/04/04 12:35:54;;;;;;;3.53;0.50;;;21.10;46.60;;;;;;5074168;28;20036;-64
2022/04/04 12:38:30;;;;;;;1.85;0.60;;;21.10;46.60;;;;;;5074051;28;20041;-64
2022/04/04 12:41:13;;;;;;;1.65;0.40;;;21.10;46.60;;;;;;5074370;28;20051;-64
2022/04/04 12:43:58;;;;;;;2.10;0.50;;;21.10;46.70;;;;;;5074729;28;20036;-64
2022/04/04 12:46:26;;;;;;;2.63;0.60;;;21.10;46.60;;;;;;5073598;28;20036;-64
2022/04/04 12:48:52;;;;;;;3.55;0.45;;;21.10;46.60;;;;;;5073325;28;20429;-63
2022/04/04 12:51:29;;;;;;;1.42;0.45;;;21.10;46.70;;;;;;5074580;28;20040;-64
2022/04/04 12:53:55;;;;;;;1.17;0.40;;;21.10;47.40;;;;;;5074838;28;20484;-64
2022/04/04 12:56:21;;;;;;;1.40;0.40;;;21.10;46.60;;;;;;5073728;28;20087;-63
2022/04/04 12:59:06;;;;;;;1.23;0.55;;;21.10;46.60;;;;;;5074501;28;20480;-63
2022/04/04 13:01:32;;;;;;;2.50;0.60;;;21.20;46.70;;;;;;5074452;28;20436;-63
2022/04/04 13:03:58;;;;;;;2.67;0.45;;;21.10;46.60;;;;;;5073913;28;20123;-64
2022/04/04 13:06:23;;;;;;;1.50;0.45;;;21.10;47.20;;;;;;5074001;28;20500;-65